createdAt,value
2023-04-04T00:00:28.163Z,9.63
2023-04-04T00:02:56.172Z,9.90
2023-04-04T00:05:23.955Z,10.03
2023-04-04T00:07:51.326Z,9.50
2023-04-04T00:10:18.915Z,9.00
2023-04-04T00:12:46.672Z,9.77
2023-04-04T00:15:14.168Z,9.57
2023-04-04T00:17:41.828Z,8.57
2023-04-04T00:20:09.623Z,9.57
2023-04-04T00:22:36.996Z,9.40
2023-04-04T00:25:04.852Z,10.23
2023-04-04T00:27:32.225Z,10.20
2023-04-04T00:29:59.791Z,10.17
2023-04-04T00:32:27.574Z,9.20
2023-04-04T00:34:55.103Z,10.07
2023-04-04T00:37:22.579Z,9.50
2023-04-04T00:39:50.464Z,10.50
2023-04-04T00:42:17.940Z,10.10
2023-04-04T00:44:45.467Z,10.10
2023-04-04T00:47:13.256Z,10.00
2023-04-04T00:49:40.637Z,10.13
2023-04-04T00:52:08.165Z,10.07
2023-04-04T00:54:35.946Z,8.47
2023-04-04T00:57:04.231Z,9.40
2023-04-04T00:59:31.677Z,10.03
2023-04-04T01:02:00.626Z,9.50
2023-04-04T01:04:29.348Z,9.47
2023-04-04T01:06:56.895Z,10.03
2023-04-04T01:09:24.687Z,9.30
2023-04-04T01:11:52.123Z,10.03
2023-04-04T01:14:19.831Z,9.77
2023-04-04T01:16:48.607Z,10.10
2023-04-04T01:19:20.508Z,9.90
2023-04-04T01:21:48.163Z,10.90
2023-04-04T01:24:16.665Z,10.53
2023-04-04T01:26:44.563Z,9.70
2023-04-04T01:29:12.384Z,10.20
2023-04-04T01:31:41.915Z,9.93
2023-04-04T01:34:44.910Z,10.00
2023-04-04T01:37:15.595Z,10.17
2023-04-04T01:39:48.137Z,9.27
2023-04-04T01:42:15.869Z,10.03
2023-04-04T01:44:44.065Z,9.30
2023-04-04T01:47:14.993Z,10.27
2023-04-04T01:49:43.225Z,10.07
2023-04-04T01:52:10.670Z,9.50
2023-04-04T01:54:38.287Z,9.53
2023-04-04T01:57:06.296Z,9.90
2023-04-04T01:59:34.282Z,9.87
2023-04-04T02:02:01.917Z,9.93
2023-04-04T02:04:30.375Z,9.97
2023-04-04T02:06:58.496Z,11.03
2023-04-04T02:09:26.313Z,11.30
2023-04-04T02:11:54.651Z,11.53
2023-04-04T02:14:22.061Z,9.87
2023-04-04T02:16:50.725Z,10.23
2023-04-04T02:19:18.779Z,8.90
2023-04-04T02:21:46.496Z,10.07
2023-04-04T02:24:13.941Z,8.80
2023-04-04T02:26:42.244Z,9.50
2023-04-04T02:29:09.960Z,9.47
2023-04-04T02:31:37.817Z,10.10
2023-04-04T02:34:05.576Z,10.17
2023-04-04T02:36:34.024Z,9.70
2023-04-04T02:39:02.449Z,9.50
2023-04-04T02:41:30.571Z,9.27
2023-04-04T02:43:58.469Z,9.43
2023-04-04T02:46:26.124Z,10.10
2023-04-04T02:48:54.529Z,9.83
2023-04-04T02:51:22.451Z,8.73
2023-04-04T02:53:49.850Z,9.53
2023-04-04T02:56:17.608Z,9.63
2023-04-04T02:58:45.653Z,10.73
2023-04-04T03:01:13.077Z,10.30
2023-04-04T03:03:40.577Z,9.20
2023-04-04T03:06:08.679Z,9.80
2023-04-04T03:08:36.386Z,10.13
2023-04-04T03:11:04.007Z,9.40
2023-04-04T03:13:31.650Z,9.97
2023-04-04T03:16:03.479Z,9.13
2023-04-04T03:18:31.524Z,9.40
2023-04-04T03:20:59.161Z,9.50
2023-04-04T03:23:26.665Z,9.57
2023-04-04T03:25:55.091Z,9.03
2023-04-04T03:28:23.224Z,9.27
2023-04-04T03:30:50.809Z,9.23
2023-04-04T03:33:19.382Z,9.90
2023-04-04T03:35:47.108Z,9.00
2023-04-04T03:38:14.597Z,9.17
2023-04-04T03:40:42.897Z,8.73
2023-04-04T03:43:11.258Z,9.60
2023-04-04T03:45:39.267Z,9.80
2023-04-04T03:48:07.477Z,9.77
2023-04-04T03:50:36.734Z,9.17
2023-04-04T03:53:04.125Z,8.53
2023-04-04T03:55:31.478Z,8.87
2023-04-04T03:57:59.259Z,9.97
2023-04-04T04:00:27.208Z,9.97
2023-04-04T04:02:54.914Z,8.37
2023-04-04T04:05:22.599Z,9.57
2023-04-04T04:07:49.956Z,8.80
2023-04-04T04:10:18.393Z,9.70
2023-04-04T04:12:45.808Z,9.17
2023-04-04T04:15:13.511Z,8.40
2023-04-04T04:17:42.042Z,8.73
2023-04-04T04:20:10.048Z,9.00
2023-04-04T04:22:38.208Z,9.27
2023-04-04T04:25:06.066Z,9.17
2023-04-04T04:27:34.069Z,9.83
2023-04-04T04:30:01.550Z,9.40
2023-04-04T04:32:34.364Z,9.27
2023-04-04T04:35:02.280Z,10.27
2023-04-04T04:37:30.937Z,9.77
2023-04-04T04:39:58.733Z,10.50
2023-04-04T04:42:27.461Z,10.43
2023-04-04T04:44:56.028Z,10.23
2023-04-04T04:47:23.824Z,11.10
2023-04-04T04:49:51.946Z,11.27
2023-04-04T04:52:20.547Z,10.33
2023-04-04T04:54:48.467Z,10.83
2023-04-04T04:57:16.112Z,10.80
2023-04-04T04:59:44.320Z,10.60
2023-04-04T05:02:12.196Z,10.47
2023-04-04T05:04:44.840Z,10.80
2023-04-04T05:07:12.773Z,9.87
2023-04-04T05:09:40.514Z,10.43
2023-04-04T05:12:08.049Z,10.20
2023-04-04T05:14:36.152Z,10.30
2023-04-04T05:17:03.527Z,10.23
2023-04-04T05:19:31.618Z,10.97
2023-04-04T05:21:59.707Z,9.87
2023-04-04T05:24:27.803Z,9.90
2023-04-04T05:26:55.632Z,9.60
2023-04-04T05:29:23.429Z,10.67
2023-04-04T05:31:51.175Z,10.27
2023-04-04T05:34:18.865Z,9.00
2023-04-04T05:36:47.952Z,9.27
2023-04-04T05:39:15.501Z,10.43
2023-04-04T05:41:43.619Z,9.40
2023-04-04T05:44:12.444Z,9.07
2023-04-04T05:46:39.961Z,9.87
2023-04-04T05:49:07.870Z,9.60
2023-04-04T05:51:36.711Z,9.57
2023-04-04T05:54:07.482Z,9.83
2023-04-04T05:56:35.035Z,10.73
2023-04-04T05:59:03.553Z,10.53
2023-04-04T06:01:31.414Z,9.77
2023-04-04T06:04:00.724Z,9.17
2023-04-04T06:06:28.257Z,9.57
2023-04-04T06:08:55.993Z,8.83
2023-04-04T06:11:23.655Z,9.20
2023-04-04T06:13:52.882Z,9.57
2023-04-04T06:16:21.406Z,9.37
2023-04-04T06:18:49.190Z,9.73
2023-04-04T06:21:16.606Z,10.67
2023-04-04T06:23:44.003Z,9.73
2023-04-04T06:26:12.634Z,9.37
2023-04-04T06:28:50.051Z,8.97
2023-04-04T06:31:18.222Z,8.70
2023-04-04T06:33:46.160Z,8.70
2023-04-04T06:36:14.257Z,8.60
2023-04-04T06:38:41.957Z,8.33
2023-04-04T06:41:13.290Z,8.30
2023-04-04T06:43:40.926Z,8.40
2023-04-04T06:46:09.313Z,8.90
2023-04-04T06:48:37.387Z,7.87
2023-04-04T06:51:07.977Z,7.93
2023-04-04T06:53:35.925Z,8.60
2023-04-04T06:56:04.734Z,8.47
2023-04-04T06:58:32.601Z,9.20
2023-04-04T07:01:02.238Z,8.40
2023-04-04T07:03:29.653Z,7.20
2023-04-04T07:05:57.215Z,6.97
2023-04-04T07:08:24.818Z,8.53
2023-04-04T07:10:52.225Z,7.20
2023-04-04T07:13:19.625Z,7.13
2023-04-04T07:15:50.923Z,7.20
2023-04-04T07:18:18.330Z,7.70
2023-04-04T07:20:48.561Z,7.17
2023-04-04T07:23:16.231Z,7.80
2023-04-04T07:25:44.415Z,7.07
2023-04-04T07:28:13.447Z,7.20
2023-04-04T07:30:42.707Z,7.50
2023-04-04T07:33:10.572Z,7.90
2023-04-04T07:35:38.391Z,7.40
2023-04-04T07:38:10.308Z,8.53
2023-04-04T07:40:38.297Z,8.37
2023-04-04T07:43:06.688Z,6.90
2023-04-04T07:45:34.380Z,7.70
2023-04-04T07:48:02.129Z,7.80
2023-04-04T07:50:29.604Z,8.03
2023-04-04T07:52:58.668Z,8.40
2023-04-04T07:55:26.212Z,8.20
2023-04-04T07:57:53.651Z,8.37
2023-04-04T08:00:22.154Z,9.57
2023-04-04T08:02:53.735Z,9.00
2023-04-04T08:05:21.319Z,9.77
2023-04-04T08:07:48.664Z,9.10
2023-04-04T08:10:19.385Z,8.50
2023-04-04T08:12:46.836Z,9.70
2023-04-04T08:15:14.173Z,9.13
2023-04-04T08:17:43.675Z,9.27
2023-04-04T08:20:15.815Z,8.30
2023-04-04T08:22:43.415Z,9.43
2023-04-04T08:25:11.412Z,8.63
2023-04-04T08:27:44.911Z,9.00
2023-04-04T08:30:14.350Z,9.33
2023-04-04T08:32:42.288Z,8.90
2023-04-04T08:35:09.794Z,8.33
2023-04-04T08:37:37.525Z,8.40
2023-04-04T08:40:05.341Z,7.87
2023-04-04T08:42:33.271Z,8.10
2023-04-04T08:45:01.959Z,8.33
2023-04-04T08:47:30.205Z,8.60
2023-04-04T08:49:57.600Z,8.63
2023-04-04T08:52:25.609Z,9.13
2023-04-04T08:54:52.999Z,8.13
2023-04-04T08:57:20.517Z,8.83
2023-04-04T08:59:48.447Z,8.50
2023-04-04T09:02:21.439Z,9.73
2023-04-04T09:04:58.608Z,8.43
2023-04-04T09:07:33.340Z,8.63
2023-04-04T09:10:01.342Z,8.53
2023-04-04T09:12:29.135Z,9.13
2023-04-04T09:14:56.760Z,8.27
2023-04-04T09:17:24.525Z,7.97
2023-04-04T09:19:54.218Z,8.37
2023-04-04T09:22:21.946Z,8.57
2023-04-04T09:24:51.736Z,8.37
2023-04-04T09:27:19.146Z,8.68
2023-04-04T09:29:47.433Z,8.20
2023-04-04T09:32:16.026Z,8.67
2023-04-04T09:34:44.040Z,8.20
2023-04-04T09:37:14.348Z,8.77
2023-04-04T09:39:43.549Z,9.65
2023-04-04T09:42:11.194Z,8.70
2023-04-04T09:44:38.777Z,8.90
2023-04-04T09:50:00.126Z,8.27
2023-04-04T09:52:27.983Z,8.63
2023-04-04T09:54:57.119Z,8.75
2023-04-04T09:57:34.905Z,10.00
2023-04-04T10:00:08.775Z,9.15
2023-04-04T10:02:41.302Z,9.27
2023-04-04T10:05:10.259Z,8.70
2023-04-04T10:07:42.336Z,8.80
2023-04-04T10:10:10.617Z,9.43
2023-04-04T10:12:38.517Z,8.27
2023-04-04T10:15:06.269Z,8.35
2023-04-04T10:17:41.028Z,9.07
2023-04-04T10:20:09.168Z,9.27
2023-04-04T10:22:38.057Z,10.10
2023-04-04T10:25:06.051Z,8.98
2023-04-04T10:27:38.608Z,8.73
2023-04-04T10:30:07.785Z,8.65
2023-04-04T10:33:07.503Z,8.70
2023-04-04T10:35:35.311Z,8.38
2023-04-04T10:38:03.557Z,9.45
2023-04-04T10:40:33.288Z,9.23
2023-04-04T10:43:03.012Z,9.40
2023-04-04T10:45:32.134Z,9.05
2023-04-04T10:48:00.436Z,9.27
2023-04-04T10:50:28.361Z,9.20
2023-04-04T10:52:58.468Z,8.70
2023-04-04T10:55:26.482Z,9.40
2023-04-04T10:57:55.315Z,8.27
2023-04-04T11:00:26.161Z,9.40
2023-04-04T11:03:00.487Z,9.02
2023-04-04T11:05:31.078Z,8.57
2023-04-04T11:08:09.093Z,8.07
2023-04-04T11:10:44.594Z,8.88
2023-04-04T11:13:18.230Z,8.52
2023-04-04T11:15:59.798Z,8.82
2023-04-04T11:18:42.331Z,9.10
2023-04-04T11:21:11.462Z,8.98
2023-04-04T11:23:48.086Z,8.98
2023-04-04T11:26:20.083Z,8.75
2023-04-04T11:28:48.562Z,8.95
2023-04-04T11:31:19.379Z,8.90
2023-04-04T11:34:05.923Z,9.50
2023-04-04T11:36:36.836Z,8.50
2023-04-04T11:39:30.343Z,9.15
2023-04-04T11:42:10.781Z,9.43
2023-04-04T11:44:59.833Z,9.55
2023-04-04T11:47:27.910Z,10.02
2023-04-04T11:49:55.900Z,9.65
2023-04-04T11:52:26.378Z,10.20
2023-04-04T11:54:54.235Z,9.90
2023-04-04T11:57:21.903Z,9.80
2023-04-04T11:59:50.568Z,9.48
2023-04-04T12:02:27.550Z,9.40
2023-04-04T12:04:55.693Z,8.98
2023-04-04T12:07:24.531Z,10.18
2023-04-04T12:09:51.945Z,9.73
2023-04-04T12:12:19.916Z,10.02
2023-04-04T12:14:47.749Z,10.05
2023-04-04T12:17:16.205Z,9.35
2023-04-04T12:19:44.392Z,9.90
2023-04-04T12:22:11.859Z,9.80
2023-04-04T12:24:39.323Z,10.40
2023-04-04T12:27:07.194Z,10.88
2023-04-04T12:29:36.449Z,9.80
2023-04-04T12:32:04.079Z,10.10
2023-04-04T12:34:35.293Z,10.25
2023-04-04T12:37:02.895Z,9.80
2023-04-04T12:39:30.358Z,9.32
2023-04-04T12:41:59.197Z,10.35
2023-04-04T12:44:33.249Z,10.25
2023-04-04T12:47:03.218Z,10.25
2023-04-04T12:49:32.417Z,10.27
2023-04-04T12:52:04.410Z,9.20
2023-04-04T12:54:33.355Z,9.73
2023-04-04T12:57:04.186Z,9.82
2023-04-04T12:59:33.422Z,9.18
2023-04-04T13:02:06.824Z,9.32
2023-04-04T13:04:34.584Z,9.73
2023-04-04T13:07:02.690Z,9.00
2023-04-04T13:09:30.242Z,9.60
2023-04-04T13:11:59.896Z,9.38
2023-04-04T13:14:28.462Z,9.52
2023-04-04T13:17:04.698Z,8.77
2023-04-04T13:19:32.453Z,9.60
2023-04-04T13:22:01.314Z,9.40
2023-04-04T13:24:28.839Z,9.80
2023-04-04T13:26:57.116Z,9.43
2023-04-04T13:29:25.404Z,9.15
2023-04-04T13:31:53.372Z,9.13
2023-04-04T13:34:24.237Z,9.10
2023-04-04T13:36:51.646Z,9.63
2023-04-04T13:39:19.102Z,9.18
2023-04-04T13:41:46.751Z,9.05
2023-04-04T13:44:14.517Z,9.30
2023-04-04T13:46:42.269Z,8.77
2023-04-04T13:49:11.210Z,9.00
2023-04-04T13:51:38.699Z,9.23
2023-04-04T13:54:06.528Z,8.38
2023-04-04T13:56:34.295Z,8.48
2023-04-04T13:59:01.713Z,8.95
2023-04-04T14:01:29.159Z,9.60
2023-04-04T14:03:56.901Z,8.98
2023-04-04T14:06:24.457Z,9.48
2023-04-04T14:08:51.797Z,9.77
2023-04-04T14:11:19.595Z,9.60
2023-04-04T14:13:47.067Z,9.50
2023-04-04T14:16:14.628Z,8.80
2023-04-04T14:18:42.304Z,9.07
2023-04-04T14:21:09.703Z,8.95
2023-04-04T14:23:37.420Z,9.25
2023-04-04T14:26:05.065Z,9.40
2023-04-04T14:28:32.782Z,9.65
2023-04-04T14:31:00.151Z,8.40
2023-04-04T14:33:27.737Z,8.43
2023-04-04T14:35:55.117Z,9.65
2023-04-04T14:38:22.488Z,9.73
2023-04-04T14:40:50.246Z,8.70
2023-04-04T14:43:17.575Z,9.40
2023-04-04T14:45:44.932Z,8.65
2023-04-04T14:48:12.553Z,8.43
2023-04-04T14:50:40.392Z,8.77
2023-04-04T14:53:07.873Z,9.15
2023-04-04T14:55:35.584Z,8.27
2023-04-04T14:58:03.294Z,8.18
2023-04-04T15:00:31.228Z,9.05
2023-04-04T15:02:59.456Z,8.70
2023-04-04T15:05:27.324Z,9.05
2023-04-04T15:07:55.756Z,8.43
2023-04-04T15:10:23.846Z,9.63
2023-04-04T15:12:51.300Z,9.32
2023-04-04T15:15:18.754Z,8.85
2023-04-04T15:17:46.759Z,10.88
2023-04-04T15:20:14.174Z,9.10
2023-04-04T15:22:41.621Z,9.25
2023-04-04T15:25:09.418Z,9.00
2023-04-04T15:27:36.823Z,9.35
2023-04-04T15:30:04.868Z,9.57
2023-04-04T15:32:32.555Z,8.75
2023-04-04T15:34:59.940Z,11.25
2023-04-04T15:37:27.308Z,9.93
2023-04-04T15:39:54.959Z,11.35
2023-04-04T15:42:22.322Z,10.65
2023-04-04T15:44:49.670Z,9.30
2023-04-04T15:47:17.413Z,8.77
2023-04-04T15:49:44.778Z,10.23
2023-04-04T15:52:12.388Z,10.45
2023-04-04T15:54:39.980Z,9.65
2023-04-04T15:57:07.341Z,8.95
2023-04-04T15:59:34.863Z,9.20
2023-04-04T16:02:04.730Z,10.00
2023-04-04T16:04:33.060Z,11.32
2023-04-04T16:07:00.579Z,8.90
2023-04-04T16:09:28.136Z,8.77
2023-04-04T16:11:56.163Z,10.07
2023-04-04T16:14:24.131Z,9.07
2023-04-04T16:16:51.590Z,9.43
2023-04-04T16:19:19.337Z,9.48
2023-04-04T16:21:47.002Z,8.90
2023-04-04T16:24:15.080Z,9.18
2023-04-04T16:26:50.081Z,10.85
2023-04-04T16:29:17.725Z,9.88
2023-04-04T16:31:45.425Z,11.48
2023-04-04T16:34:12.792Z,10.93
2023-04-04T16:36:40.156Z,11.63
2023-04-04T16:39:07.845Z,10.60
2023-04-04T16:41:35.293Z,11.63
2023-04-04T16:44:02.676Z,11.05
2023-04-04T16:46:30.374Z,9.57
2023-04-04T16:48:57.843Z,9.63
2023-04-04T16:51:25.970Z,9.43
2023-04-04T16:53:53.803Z,10.15
2023-04-04T16:56:21.174Z,9.70
2023-04-04T16:58:48.567Z,9.80
2023-04-04T17:01:20.499Z,10.07
2023-04-04T17:03:48.708Z,10.10
2023-04-04T17:06:16.386Z,9.20
2023-04-04T17:08:46.513Z,9.40
2023-04-04T17:11:13.867Z,9.50
2023-04-04T17:13:41.452Z,8.93
2023-04-04T17:16:09.241Z,8.20
2023-04-04T17:18:36.827Z,8.90
2023-04-04T17:21:04.450Z,8.93
2023-04-04T17:23:31.830Z,8.98
2023-04-04T17:25:59.193Z,10.27
2023-04-04T17:28:26.816Z,10.05
2023-04-04T17:30:54.176Z,10.10
2023-04-04T17:33:23.186Z,9.65
2023-04-04T17:35:50.841Z,9.82
2023-04-04T17:38:19.991Z,10.18
2023-04-04T17:40:49.049Z,9.18
2023-04-04T17:43:16.922Z,9.20
2023-04-04T17:45:44.904Z,8.50
2023-04-04T17:48:12.533Z,10.23
2023-04-04T17:50:40.635Z,10.30
2023-04-04T17:53:08.432Z,9.48
2023-04-04T17:55:36.659Z,10.27
2023-04-04T17:58:04.284Z,9.77
2023-04-04T18:00:31.658Z,10.25
2023-04-04T18:02:59.594Z,10.35
2023-04-04T18:05:27.264Z,9.70
2023-04-04T18:07:54.606Z,11.45
2023-04-04T18:10:22.217Z,10.10
2023-04-04T18:12:49.523Z,11.13
2023-04-04T18:15:16.849Z,11.17
2023-04-04T18:17:44.547Z,9.98
2023-04-04T18:20:16.391Z,10.60
2023-04-04T18:22:49.019Z,11.35
2023-04-04T18:25:19.696Z,9.60
2023-04-04T18:27:47.199Z,9.17
2023-04-04T18:30:14.827Z,8.77
2023-04-04T18:32:42.597Z,9.55
2023-04-04T18:35:10.241Z,10.98
2023-04-04T18:37:37.852Z,10.25
2023-04-04T18:40:05.755Z,10.20
2023-04-04T18:42:33.883Z,10.20
2023-04-04T18:45:02.029Z,9.73
2023-04-04T18:47:30.846Z,11.12
2023-04-04T18:49:58.220Z,10.83
2023-04-04T18:52:25.984Z,10.53
2023-04-04T18:54:53.346Z,10.37
2023-04-04T18:57:20.795Z,10.60
2023-04-04T18:59:48.521Z,9.80
2023-04-04T19:02:15.866Z,10.13
2023-04-04T19:04:43.216Z,10.33
2023-04-04T19:07:11.344Z,10.03
2023-04-04T19:09:38.729Z,10.87
2023-04-04T19:12:06.205Z,10.23
2023-04-04T19:14:33.886Z,10.70
2023-04-04T19:17:01.389Z,11.37
2023-04-04T19:19:29.146Z,10.67
2023-04-04T19:21:56.759Z,11.20
2023-04-04T19:24:24.119Z,10.80
2023-04-04T19:26:51.528Z,10.37
2023-04-04T19:29:20.948Z,10.70
2023-04-04T19:31:48.476Z,10.03
2023-04-04T19:34:16.054Z,10.37
2023-04-04T19:36:43.669Z,10.23
2023-04-04T19:39:11.074Z,9.27
2023-04-04T19:41:39.273Z,9.17
2023-04-04T19:44:08.850Z,9.73
2023-04-04T19:46:36.318Z,9.43
2023-04-04T19:49:12.701Z,9.67
2023-04-04T19:54:11.460Z,10.03
2023-04-04T19:56:38.818Z,10.23
2023-04-04T19:59:09.837Z,9.93
2023-04-04T20:01:44.735Z,9.80
2023-04-04T20:04:18.062Z,10.37
2023-04-04T20:06:45.561Z,9.87
2023-04-04T20:09:29.499Z,9.67
2023-04-04T20:11:57.149Z,10.10
2023-04-04T20:14:24.493Z,10.13
2023-04-04T20:16:52.412Z,9.60
2023-04-04T20:19:20.943Z,10.07
2023-04-04T20:21:48.818Z,9.90
2023-04-04T20:24:16.957Z,10.00
2023-04-04T20:27:00.023Z,10.33
2023-04-04T20:29:28.094Z,11.27
2023-04-04T20:32:02.617Z,9.90
2023-04-04T20:34:46.262Z,11.03
2023-04-04T20:37:25.980Z,9.80
2023-04-04T20:40:00.294Z,11.07
2023-04-04T20:42:27.758Z,10.03
2023-04-04T20:44:55.983Z,10.07
2023-04-04T20:47:42.802Z,10.00
2023-04-04T20:50:22.472Z,10.23
2023-04-04T20:52:56.911Z,10.23
2023-04-04T20:55:28.476Z,10.30
2023-04-04T20:58:09.474Z,10.80
2023-04-04T21:00:41.318Z,9.83
2023-04-04T21:03:10.403Z,10.30
2023-04-04T21:05:39.267Z,10.73
2023-04-04T21:08:24.622Z,10.30
2023-04-04T21:10:53.436Z,10.52
2023-04-04T21:13:27.210Z,10.67
2023-04-04T21:16:12.186Z,10.60
2023-04-04T21:18:40.327Z,10.47
2023-04-04T21:21:20.128Z,10.77
2023-04-04T21:23:53.002Z,11.00
2023-04-04T21:26:28.518Z,10.53
2023-04-04T21:28:56.976Z,11.10
2023-04-04T21:31:26.093Z,11.67
2023-04-04T21:33:54.681Z,10.97
2023-04-04T21:36:26.251Z,10.53
2023-04-04T21:39:01.731Z,10.23
2023-04-04T21:41:30.623Z,13.03
2023-04-04T21:43:59.404Z,11.83
2023-04-04T21:46:28.099Z,10.87
2023-04-04T21:48:55.595Z,11.40
2023-04-04T21:51:23.291Z,11.50
2023-04-04T21:53:50.955Z,12.03
2023-04-04T21:56:18.306Z,11.97
2023-04-04T21:58:46.082Z,11.33
2023-04-04T22:01:13.468Z,11.00
2023-04-04T22:03:41.112Z,11.17
2023-04-04T22:06:08.630Z,11.03
2023-04-04T22:08:36.043Z,11.50
2023-04-04T22:11:04.078Z,11.30
2023-04-04T22:13:32.900Z,12.23
2023-04-04T22:16:01.031Z,11.70
2023-04-04T22:18:33.719Z,12.60
2023-04-04T22:21:03.381Z,11.90
2023-04-04T22:23:37.461Z,11.60
2023-04-04T22:26:09.256Z,11.27
2023-04-04T22:28:38.867Z,11.63
2023-04-04T22:31:06.342Z,12.00
2023-04-04T22:33:34.110Z,12.40
2023-04-04T22:36:01.919Z,12.43
2023-04-04T22:38:29.497Z,11.77
2023-04-04T22:40:57.699Z,12.33
2023-04-04T22:43:28.613Z,12.77
2023-04-04T22:45:56.277Z,11.50
2023-04-04T22:48:23.761Z,11.63
2023-04-04T22:50:55.687Z,10.63
2023-04-04T22:53:26.128Z,11.47
2023-04-04T22:55:54.190Z,12.57
2023-04-04T22:58:21.831Z,11.77
2023-04-04T23:00:49.303Z,12.43
2023-04-04T23:03:17.127Z,11.60
2023-04-04T23:05:44.469Z,11.53
2023-04-04T23:08:11.816Z,11.23
2023-04-04T23:10:39.713Z,11.00
2023-04-04T23:13:07.266Z,11.33
2023-04-04T23:15:37.642Z,10.87
2023-04-04T23:18:05.713Z,11.43
2023-04-04T23:20:33.195Z,10.87
2023-04-04T23:23:00.582Z,11.23
2023-04-04T23:25:28.472Z,12.07
2023-04-04T23:27:55.932Z,10.90
2023-04-04T23:30:24.096Z,11.27
2023-04-04T23:32:51.803Z,11.00
2023-04-04T23:35:19.168Z,11.57
2023-04-04T23:37:46.520Z,11.00
2023-04-04T23:40:14.162Z,11.10
2023-04-04T23:42:41.862Z,11.30
2023-04-04T23:45:10.071Z,11.30
2023-04-04T23:47:37.752Z,12.17
2023-04-04T23:50:05.593Z,10.50
2023-04-04T23:52:33.012Z,11.50
2023-04-04T23:55:00.857Z,11.30
2023-04-04T23:57:28.767Z,11.07
2023-04-04T23:59:56.117Z,11.63
